sensor_id;sensor_type;location;lat;lon;timestamp;pressure;altitude;pressure_sealevel;temperature;humidity
41712;BME280;27399;51.516;13.670;2023-06-26T00:02:25;100544.53;;;21.32;86.33
41712;BME280;27399;51.516;13.670;2023-06-26T00:04:51;100540.28;;;21.26;86.57
41712;BME280;27399;51.516;13.670;2023-06-26T00:07:20;100541.00;;;21.30;86.29
41712;BME280;27399;51.516;13.670;2023-06-26T00:09:46;100547.22;;;21.14;86.42
41712;BME280;27399;51.516;13.670;2023-06-26T00:12:15;100537.34;;;21.31;86.14
41712;BME280;27399;51.516;13.670;2023-06-26T00:14:44;100542.06;;;21.27;86.22
41712;BME280;27399;51.516;13.670;2023-06-26T00:17:35;100539.34;;;21.27;86.21
41712;BME280;27399;51.516;13.670;2023-06-26T00:20:03;100536.63;;;21.27;85.89
41712;BME280;27399;51.516;13.670;2023-06-26T00:22:33;100534.25;;;21.21;86.06
41712;BME280;27399;51.516;13.670;2023-06-26T00:24:59;100535.50;;;21.14;86.57
41712;BME280;27399;51.516;13.670;2023-06-26T00:27:25;100533.16;;;21.06;86.57
41712;BME280;27399;51.516;13.670;2023-06-26T00:29:54;100535.00;;;21.05;86.73
41712;BME280;27399;51.516;13.670;2023-06-26T00:32:19;100533.81;;;20.94;86.69
41712;BME280;27399;51.516;13.670;2023-06-26T00:34:45;100537.94;;;20.83;87.62
41712;BME280;27399;51.516;13.670;2023-06-26T00:37:12;100537.59;;;20.89;87.11
41712;BME280;27399;51.516;13.670;2023-06-26T00:40:06;100534.91;;;20.89;87.12
41712;BME280;27399;51.516;13.670;2023-06-26T00:42:34;100533.94;;;20.90;87.29
41712;BME280;27399;51.516;13.670;2023-06-26T00:45:00;100527.72;;;20.88;87.20
41712;BME280;27399;51.516;13.670;2023-06-26T00:47:29;100528.38;;;20.94;87.14
41712;BME280;27399;51.516;13.670;2023-06-26T00:49:55;100533.94;;;20.90;86.95
41712;BME280;27399;51.516;13.670;2023-06-26T00:52:21;100529.97;;;20.98;86.59
41712;BME280;27399;51.516;13.670;2023-06-26T00:54:49;100531.00;;;20.95;86.46
41712;BME280;27399;51.516;13.670;2023-06-26T00:57:21;100532.91;;;20.93;86.54
41712;BME280;27399;51.516;13.670;2023-06-26T00:59:48;100526.78;;;20.89;86.61
41712;BME280;27399;51.516;13.670;2023-06-26T01:02:14;100523.56;;;20.81;86.50
41712;BME280;27399;51.516;13.670;2023-06-26T01:04:43;100528.03;;;20.82;86.70
41712;BME280;27399;51.516;13.670;2023-06-26T01:07:13;100525.34;;;20.82;86.33
41712;BME280;27399;51.516;13.670;2023-06-26T01:09:40;100512.72;;;20.81;86.27
41712;BME280;27399;51.516;13.670;2023-06-26T01:12:06;100511.28;;;20.74;86.35
41712;BME280;27399;51.516;13.670;2023-06-26T01:14:34;100513.75;;;20.59;87.20
41712;BME280;27399;51.516;13.670;2023-06-26T01:17:03;100512.56;;;20.65;86.86
41712;BME280;27399;51.516;13.670;2023-06-26T01:19:30;100511.63;;;20.66;86.94
41712;BME280;27399;51.516;13.670;2023-06-26T01:22:23;100504.19;;;20.52;87.35
41712;BME280;27399;51.516;13.670;2023-06-26T01:25:03;100498.97;;;20.48;87.55
41712;BME280;27399;51.516;13.670;2023-06-26T01:27:35;100499.84;;;20.48;87.42
41712;BME280;27399;51.516;13.670;2023-06-26T01:30:03;100497.50;;;20.40;87.91
41712;BME280;27399;51.516;13.670;2023-06-26T01:32:31;100497.66;;;20.37;87.75
41712;BME280;27399;51.516;13.670;2023-06-26T01:35:01;100498.97;;;20.48;87.72
41712;BME280;27399;51.516;13.670;2023-06-26T01:37:33;100494.16;;;20.35;88.07
41712;BME280;27399;51.516;13.670;2023-06-26T01:40:02;100496.34;;;20.46;87.38
41712;BME280;27399;51.516;13.670;2023-06-26T01:42:37;100489.34;;;20.42;87.81
41712;BME280;27399;51.516;13.670;2023-06-26T01:45:20;100479.72;;;20.35;87.47
41712;BME280;27399;51.516;13.670;2023-06-26T01:47:51;100495.47;;;20.46;87.12
41712;BME280;27399;51.516;13.670;2023-06-26T01:50:30;100490.91;;;20.46;86.87
41712;BME280;27399;51.516;13.670;2023-06-26T01:53:13;100492.81;;;20.44;86.99
41712;BME280;27399;51.516;13.670;2023-06-26T01:56:05;100469.94;;;20.32;87.18
41712;BME280;27399;51.516;13.670;2023-06-26T01:58:34;100499.84;;;20.48;86.42
41712;BME280;27399;51.516;13.670;2023-06-26T02:01:04;100488.44;;;20.41;86.82
41712;BME280;27399;51.516;13.670;2023-06-26T02:03:30;100489.97;;;20.28;87.25
41712;BME280;27399;51.516;13.670;2023-06-26T02:05:56;100479.53;;;20.20;87.29
41712;BME280;27399;51.516;13.670;2023-06-26T02:08:24;100483.97;;;20.40;86.82
41712;BME280;27399;51.516;13.670;2023-06-26T02:10:50;100468.41;;;20.26;86.87
41712;BME280;27399;51.516;13.670;2023-06-26T02:13:16;100478.19;;;20.29;86.89
41712;BME280;27399;51.516;13.670;2023-06-26T02:15:45;100473.94;;;20.23;87.35
41712;BME280;27399;51.516;13.670;2023-06-26T02:18:11;100485.50;;;20.27;86.84
41712;BME280;27399;51.516;13.670;2023-06-26T02:20:37;100478.41;;;20.24;87.01
41712;BME280;27399;51.516;13.670;2023-06-26T02:23:03;100481.47;;;20.17;87.17
41712;BME280;27399;51.516;13.670;2023-06-26T02:25:32;100485.53;;;20.08;87.50
41712;BME280;27399;51.516;13.670;2023-06-26T02:27:58;100477.31;;;20.09;87.33
41712;BME280;27399;51.516;13.670;2023-06-26T02:30:26;100469.94;;;19.94;87.88
41712;BME280;27399;51.516;13.670;2023-06-26T02:32:52;100465.31;;;19.96;87.67
41712;BME280;27399;51.516;13.670;2023-06-26T02:35:21;100468.25;;;19.91;87.82
41712;BME280;27399;51.516;13.670;2023-06-26T02:37:49;100477.69;;;20.02;87.53
41712;BME280;27399;51.516;13.670;2023-06-26T02:40:15;100477.75;;;20.00;87.80
41712;BME280;27399;51.516;13.670;2023-06-26T02:42:41;100470.66;;;19.97;87.78
41712;BME280;27399;51.516;13.670;2023-06-26T02:45:08;100477.03;;;19.96;87.52
41712;BME280;27399;51.516;13.670;2023-06-26T02:47:40;100473.97;;;20.04;87.61
41712;BME280;27399;51.516;13.670;2023-06-26T02:50:15;100476.59;;;20.06;87.57
41712;BME280;27399;51.516;13.670;2023-06-26T02:52:41;100476.16;;;20.15;86.78
41712;BME280;27399;51.516;13.670;2023-06-26T02:55:07;100466.28;;;20.14;86.59
41712;BME280;27399;51.516;13.670;2023-06-26T02:57:35;100466.72;;;20.05;87.19
41712;BME280;27399;51.516;13.670;2023-06-26T03:00:01;100472.00;;;20.08;87.13
41712;BME280;27399;51.516;13.670;2023-06-26T03:02:33;100467.38;;;20.10;87.02
41712;BME280;27399;51.516;13.670;2023-06-26T03:04:59;100449.88;;;19.98;86.98
41712;BME280;27399;51.516;13.670;2023-06-26T03:07:25;100463.69;;;20.11;86.85
41712;BME280;27399;51.516;13.670;2023-06-26T03:09:54;100475.50;;;20.10;86.75
41712;BME280;27399;51.516;13.670;2023-06-26T03:12:20;100467.09;;;20.16;86.24
41712;BME280;27399;51.516;13.670;2023-06-26T03:14:46;100461.97;;;20.10;86.86
41712;BME280;27399;51.516;13.670;2023-06-26T03:17:18;100465.19;;;19.99;86.77
41712;BME280;27399;51.516;13.670;2023-06-26T03:19:44;100469.88;;;19.95;87.11
41712;BME280;27399;51.516;13.670;2023-06-26T03:22:10;100460.56;;;20.01;87.16
41712;BME280;27399;51.516;13.670;2023-06-26T03:24:36;100464.75;;;19.89;86.90
41712;BME280;27399;51.516;13.670;2023-06-26T03:27:05;100459.03;;;19.95;87.23
41712;BME280;27399;51.516;13.670;2023-06-26T03:29:34;100454.25;;;20.01;86.92
41712;BME280;27399;51.516;13.670;2023-06-26T03:32:00;100460.28;;;19.88;87.28
41712;BME280;27399;51.516;13.670;2023-06-26T03:34:29;100460.47;;;19.84;87.48
41712;BME280;27399;51.516;13.670;2023-06-26T03:36:57;100451.06;;;19.92;87.29
41712;BME280;27399;51.516;13.670;2023-06-26T03:39:27;100454.78;;;19.90;87.37
41712;BME280;27399;51.516;13.670;2023-06-26T03:41:56;100451.34;;;19.86;87.44
41712;BME280;27399;51.516;13.670;2023-06-26T03:44:26;100446.84;;;19.85;87.13
41712;BME280;27399;51.516;13.670;2023-06-26T03:46:54;100451.38;;;19.85;87.33
41712;BME280;27399;51.516;13.670;2023-06-26T03:49:23;100445.00;;;19.87;87.32
41712;BME280;27399;51.516;13.670;2023-06-26T03:51:49;100445.63;;;19.92;87.32
41712;BME280;27399;51.516;13.670;2023-06-26T03:54:18;100445.31;;;19.79;87.60
41712;BME280;27399;51.516;13.670;2023-06-26T03:56:47;100450.63;;;19.81;87.71
41712;BME280;27399;51.516;13.670;2023-06-26T03:59:14;100451.66;;;19.78;87.81
41712;BME280;27399;51.516;13.670;2023-06-26T04:01:43;100452.63;;;19.77;88.32
41712;BME280;27399;51.516;13.670;2023-06-26T04:04:11;100447.63;;;19.89;87.53
41712;BME280;27399;51.516;13.670;2023-06-26T04:06:37;100444.16;;;19.85;87.45
41712;BME280;27399;51.516;13.670;2023-06-26T04:09:05;100448.56;;;19.88;87.81
41712;BME280;27399;51.516;13.670;2023-06-26T04:11:31;100450.81;;;19.78;88.26
41712;BME280;27399;51.516;13.670;2023-06-26T04:14:00;100444.03;;;19.88;88.26
41712;BME280;27399;51.516;13.670;2023-06-26T04:16:26;100430.03;;;19.78;88.18
41712;BME280;27399;51.516;13.670;2023-06-26T04:18:55;100442.34;;;19.86;88.45
41712;BME280;27399;51.516;13.670;2023-06-26T04:21:23;100436.31;;;19.79;88.23
41712;BME280;27399;51.516;13.670;2023-06-26T04:23:55;100449.38;;;19.90;88.41
41712;BME280;27399;51.516;13.670;2023-06-26T04:26:23;100425.34;;;19.82;89.01
41712;BME280;27399;51.516;13.670;2023-06-26T04:28:49;100442.28;;;19.87;88.80
41712;BME280;27399;51.516;13.670;2023-06-26T04:31:15;100446.59;;;19.91;88.88
41712;BME280;27399;51.516;13.670;2023-06-26T04:33:42;100438.69;;;19.87;88.99
41712;BME280;27399;51.516;13.670;2023-06-26T04:36:08;100431.47;;;19.87;89.20
41712;BME280;27399;51.516;13.670;2023-06-26T04:38:34;100433.06;;;19.91;88.81
41712;BME280;27399;51.516;13.670;2023-06-26T04:41:03;100427.63;;;19.91;88.76
41712;BME280;27399;51.516;13.670;2023-06-26T04:43:32;100454.50;;;19.96;89.37
41712;BME280;27399;51.516;13.670;2023-06-26T04:45:58;100449.66;;;20.03;89.30
41712;BME280;27399;51.516;13.670;2023-06-26T04:48:27;100444.94;;;20.08;89.48
41712;BME280;27399;51.516;13.670;2023-06-26T04:50:56;100447.47;;;20.11;89.45
41712;BME280;27399;51.516;13.670;2023-06-26T04:53:27;100438.94;;;20.20;89.41
41712;BME280;27399;51.516;13.670;2023-06-26T04:55:53;100436.28;;;20.19;89.62
41712;BME280;27399;51.516;13.670;2023-06-26T04:58:20;100429.31;;;20.13;90.14
41712;BME280;27399;51.516;13.670;2023-06-26T05:00:46;100434.22;;;20.24;89.65
41712;BME280;27399;51.516;13.670;2023-06-26T05:03:13;100434.94;;;20.27;89.87
41712;BME280;27399;51.516;13.670;2023-06-26T05:05:39;100428.22;;;20.36;89.87
41712;BME280;27399;51.516;13.670;2023-06-26T05:08:18;100422.72;;;20.38;90.26
41712;BME280;27399;51.516;13.670;2023-06-26T05:10:48;100425.19;;;20.42;90.33
41712;BME280;27399;51.516;13.670;2023-06-26T05:13:18;100420.63;;;20.43;90.57
41712;BME280;27399;51.516;13.670;2023-06-26T05:15:49;100427.28;;;20.55;90.16
41712;BME280;27399;51.516;13.670;2023-06-26T05:18:15;100423.31;;;20.62;90.27
41712;BME280;27399;51.516;13.670;2023-06-26T05:20:41;100415.19;;;20.62;90.57
41712;BME280;27399;51.516;13.670;2023-06-26T05:23:07;100406.81;;;20.67;90.60
41712;BME280;27399;51.516;13.670;2023-06-26T05:25:33;100423.28;;;20.81;90.07
41712;BME280;27399;51.516;13.670;2023-06-26T05:28:02;100408.84;;;20.81;90.37
41712;BME280;27399;51.516;13.670;2023-06-26T05:30:31;100409.88;;;20.96;90.21
41712;BME280;27399;51.516;13.670;2023-06-26T05:32:59;100423.75;;;21.07;90.17
41712;BME280;27399;51.516;13.670;2023-06-26T05:35:28;100418.34;;;21.07;89.34
41712;BME280;27399;51.516;13.670;2023-06-26T05:37:56;100399.34;;;21.07;89.58
41712;BME280;27399;51.516;13.670;2023-06-26T05:40:22;100408.28;;;21.27;89.27
41712;BME280;27399;51.516;13.670;2023-06-26T05:42:49;100410.25;;;21.23;90.30
41712;BME280;27399;51.516;13.670;2023-06-26T05:45:15;100410.66;;;21.33;90.17
41712;BME280;27399;51.516;13.670;2023-06-26T05:47:41;100394.69;;;21.44;90.58
41712;BME280;27399;51.516;13.670;2023-06-26T05:50:09;100379.72;;;21.37;89.74
41712;BME280;27399;51.516;13.670;2023-06-26T05:52:35;100392.16;;;21.57;90.59
41712;BME280;27399;51.516;13.670;2023-06-26T05:55:02;100387.75;;;21.72;89.78
41712;BME280;27399;51.516;13.670;2023-06-26T05:57:30;100381.38;;;21.73;89.55
41712;BME280;27399;51.516;13.670;2023-06-26T05:59:56;100386.91;;;21.88;83.30
41712;BME280;27399;51.516;13.670;2023-06-26T06:02:22;100374.13;;;21.90;84.97
41712;BME280;27399;51.516;13.670;2023-06-26T06:04:48;100384.78;;;22.09;85.73
41712;BME280;27399;51.516;13.670;2023-06-26T06:07:14;100368.75;;;22.04;86.55
41712;BME280;27399;51.516;13.670;2023-06-26T06:09:39;100367.34;;;22.29;82.52
41712;BME280;27399;51.516;13.670;2023-06-26T06:12:06;100373.06;;;22.40;83.47
41712;BME280;27399;51.516;13.670;2023-06-26T06:14:32;100368.03;;;22.49;82.83
41712;BME280;27399;51.516;13.670;2023-06-26T06:16:58;100363.22;;;22.54;83.52
41712;BME280;27399;51.516;13.670;2023-06-26T06:19:24;100355.72;;;22.73;80.80
41712;BME280;27399;51.516;13.670;2023-06-26T06:21:49;100342.25;;;22.56;83.13
41712;BME280;27399;51.516;13.670;2023-06-26T06:24:15;100371.88;;;22.91;81.37
41712;BME280;27399;51.516;13.670;2023-06-26T06:26:40;100368.63;;;22.84;82.74
41712;BME280;27399;51.516;13.670;2023-06-26T06:29:06;100369.41;;;23.17;81.09
41712;BME280;27399;51.516;13.670;2023-06-26T06:31:32;100362.66;;;23.08;79.25
41712;BME280;27399;51.516;13.670;2023-06-26T06:33:57;100352.72;;;23.23;77.82
41712;BME280;27399;51.516;13.670;2023-06-26T06:36:23;100372.53;;;23.40;78.09
41712;BME280;27399;51.516;13.670;2023-06-26T06:38:49;100365.75;;;23.47;78.56
41712;BME280;27399;51.516;13.670;2023-06-26T06:41:14;100368.84;;;23.55;76.95
41712;BME280;27399;51.516;13.670;2023-06-26T06:43:40;100363.41;;;23.70;78.68
41712;BME280;27399;51.516;13.670;2023-06-26T06:46:06;100368.59;;;23.87;78.34
41712;BME280;27399;51.516;13.670;2023-06-26T06:48:32;100355.97;;;24.01;77.10
41712;BME280;27399;51.516;13.670;2023-06-26T06:50:57;100360.81;;;24.10;78.78
41712;BME280;27399;51.516;13.670;2023-06-26T06:53:23;100358.78;;;24.26;77.08
41712;BME280;27399;51.516;13.670;2023-06-26T06:55:49;100364.69;;;24.06;76.93
41712;BME280;27399;51.516;13.670;2023-06-26T06:58:15;100348.88;;;24.25;76.69
41712;BME280;27399;51.516;13.670;2023-06-26T07:00:45;100363.56;;;24.50;75.70
41712;BME280;27399;51.516;13.670;2023-06-26T07:03:10;100351.06;;;24.60;75.69
41712;BME280;27399;51.516;13.670;2023-06-26T07:05:37;100358.78;;;24.81;76.11
41712;BME280;27399;51.516;13.670;2023-06-26T07:08:03;100357.91;;;24.94;74.64
41712;BME280;27399;51.516;13.670;2023-06-26T07:10:29;100361.63;;;25.05;75.54
41712;BME280;27399;51.516;13.670;2023-06-26T07:12:54;100356.28;;;25.04;73.54
41712;BME280;27399;51.516;13.670;2023-06-26T07:15:20;100350.50;;;25.09;74.62
41712;BME280;27399;51.516;13.670;2023-06-26T07:17:45;100354.66;;;25.27;74.67
41712;BME280;27399;51.516;13.670;2023-06-26T07:20:11;100341.78;;;25.42;74.16
41712;BME280;27399;51.516;13.670;2023-06-26T07:22:42;100347.13;;;25.57;73.49
41712;BME280;27399;51.516;13.670;2023-06-26T07:25:08;100340.66;;;25.71;72.82
41712;BME280;27399;51.516;13.670;2023-06-26T07:27:35;100344.66;;;25.78;71.08
41712;BME280;27399;51.516;13.670;2023-06-26T07:30:01;100346.03;;;25.46;70.45
41712;BME280;27399;51.516;13.670;2023-06-26T07:32:27;100337.66;;;25.49;70.22
41712;BME280;27399;51.516;13.670;2023-06-26T07:34:53;100337.66;;;25.87;71.97
41712;BME280;27399;51.516;13.670;2023-06-26T07:37:18;100332.25;;;25.98;71.87
41712;BME280;27399;51.516;13.670;2023-06-26T07:39:44;100332.22;;;26.11;72.12
41712;BME280;27399;51.516;13.670;2023-06-26T07:42:10;100337.50;;;26.01;68.97
41712;BME280;27399;51.516;13.670;2023-06-26T07:44:35;100338.34;;;26.14;69.38
41712;BME280;27399;51.516;13.670;2023-06-26T07:47:01;100332.75;;;26.40;69.35
41712;BME280;27399;51.516;13.670;2023-06-26T07:49:27;100338.75;;;26.21;68.83
41712;BME280;27399;51.516;13.670;2023-06-26T07:51:53;100339.34;;;26.13;68.40
41712;BME280;27399;51.516;13.670;2023-06-26T07:54:18;100336.97;;;26.33;67.70
41712;BME280;27399;51.516;13.670;2023-06-26T07:56:56;100332.66;;;26.53;69.25
41712;BME280;27399;51.516;13.670;2023-06-26T07:59:23;100334.53;;;26.53;66.91
41712;BME280;27399;51.516;13.670;2023-06-26T08:01:54;100331.91;;;26.40;67.16
41712;BME280;27399;51.516;13.670;2023-06-26T08:04:22;100324.41;;;26.66;66.77
41712;BME280;27399;51.516;13.670;2023-06-26T08:06:49;100334.06;;;26.59;66.30
41712;BME280;27399;51.516;13.670;2023-06-26T08:09:17;100330.38;;;26.71;67.15
41712;BME280;27399;51.516;13.670;2023-06-26T08:11:43;100311.31;;;26.94;66.70
41712;BME280;27399;51.516;13.670;2023-06-26T08:14:09;100317.47;;;26.73;65.82
41712;BME280;27399;51.516;13.670;2023-06-26T08:16:34;100313.44;;;27.02;64.57
41712;BME280;27399;51.516;13.670;2023-06-26T08:19:00;100306.94;;;26.80;64.48
41712;BME280;27399;51.516;13.670;2023-06-26T08:21:26;100305.75;;;27.30;65.12
41712;BME280;27399;51.516;13.670;2023-06-26T08:23:52;100312.72;;;27.22;65.12
41712;BME280;27399;51.516;13.670;2023-06-26T08:26:17;100305.38;;;27.34;65.03
41712;BME280;27399;51.516;13.670;2023-06-26T08:28:43;100300.53;;;27.61;64.20
41712;BME280;27399;51.516;13.670;2023-06-26T08:31:09;100300.63;;;27.82;65.69
41712;BME280;27399;51.516;13.670;2023-06-26T08:33:34;100300.84;;;27.90;66.30
41712;BME280;27399;51.516;13.670;2023-06-26T08:36:00;100298.00;;;27.69;63.30
41712;BME280;27399;51.516;13.670;2023-06-26T08:38:25;100295.66;;;27.64;63.32
41712;BME280;27399;51.516;13.670;2023-06-26T08:40:51;100294.84;;;27.96;62.60
41712;BME280;27399;51.516;13.670;2023-06-26T08:43:17;100293.44;;;28.02;61.60
41712;BME280;27399;51.516;13.670;2023-06-26T08:45:43;100293.56;;;28.23;63.34
41712;BME280;27399;51.516;13.670;2023-06-26T08:48:09;100290.31;;;28.07;63.01
41712;BME280;27399;51.516;13.670;2023-06-26T08:50:36;100293.81;;;28.20;63.56
41712;BME280;27399;51.516;13.670;2023-06-26T08:55:49;100281.06;;;28.30;60.56
41712;BME280;27399;51.516;13.670;2023-06-26T08:58:16;100290.03;;;28.54;61.81
41712;BME280;27399;51.516;13.670;2023-06-26T09:00:42;100294.34;;;28.68;64.14
41712;BME280;27399;51.516;13.670;2023-06-26T09:03:09;100290.84;;;28.66;62.09
41712;BME280;27399;51.516;13.670;2023-06-26T09:05:35;100289.81;;;28.78;60.82
41712;BME280;27399;51.516;13.670;2023-06-26T09:08:02;100291.16;;;28.51;58.84
41712;BME280;27399;51.516;13.670;2023-06-26T09:10:28;100289.91;;;28.55;58.88
41712;BME280;27399;51.516;13.670;2023-06-26T09:12:57;100281.44;;;28.47;58.39
41712;BME280;27399;51.516;13.670;2023-06-26T09:15:23;100282.97;;;28.94;58.25
41712;BME280;27399;51.516;13.670;2023-06-26T09:17:49;100275.81;;;29.12;58.55
41712;BME280;27399;51.516;13.670;2023-06-26T09:20:15;100277.16;;;29.18;58.43
41712;BME280;27399;51.516;13.670;2023-06-26T09:22:42;100270.75;;;29.38;58.64
41712;BME280;27399;51.516;13.670;2023-06-26T09:25:09;100265.94;;;29.62;60.54
41712;BME280;27399;51.516;13.670;2023-06-26T09:27:36;100266.22;;;29.28;57.47
41712;BME280;27399;51.516;13.670;2023-06-26T09:30:05;100264.25;;;29.40;57.88
41712;BME280;27399;51.516;13.670;2023-06-26T09:32:35;100265.84;;;29.42;57.62
41712;BME280;27399;51.516;13.670;2023-06-26T09:35:03;100268.53;;;29.63;57.80
41712;BME280;27399;51.516;13.670;2023-06-26T09:37:29;100262.50;;;29.89;58.35
41712;BME280;27399;51.516;13.670;2023-06-26T09:39:55;100261.31;;;29.82;57.53
41712;BME280;27399;51.516;13.670;2023-06-26T09:42:21;100251.81;;;29.96;57.45
41712;BME280;27399;51.516;13.670;2023-06-26T09:44:47;100249.88;;;29.67;56.57
41712;BME280;27399;51.516;13.670;2023-06-26T09:47:18;100253.00;;;30.03;57.82
41712;BME280;27399;51.516;13.670;2023-06-26T09:49:44;100251.81;;;29.96;57.67
41712;BME280;27399;51.516;13.670;2023-06-26T09:52:09;100247.22;;;29.96;57.18
41712;BME280;27399;51.516;13.670;2023-06-26T09:54:35;100249.78;;;29.88;57.07
41712;BME280;27399;51.516;13.670;2023-06-26T09:57:16;100255.09;;;29.80;57.02
41712;BME280;27399;51.516;13.670;2023-06-26T09:59:43;100246.72;;;29.81;57.22
41712;BME280;27399;51.516;13.670;2023-06-26T10:02:11;100243.44;;;29.37;55.56
41712;BME280;27399;51.516;13.670;2023-06-26T10:04:37;100239.66;;;29.89;55.73
41712;BME280;27399;51.516;13.670;2023-06-26T10:07:11;100235.16;;;29.88;55.89
41712;BME280;27399;51.516;13.670;2023-06-26T10:09:41;100237.78;;;29.89;56.48
41712;BME280;27399;51.516;13.670;2023-06-26T10:12:14;100231.56;;;29.87;55.89
41712;BME280;27399;51.516;13.670;2023-06-26T10:14:42;100238.47;;;29.72;55.55
41712;BME280;27399;51.516;13.670;2023-06-26T10:17:14;100227.25;;;29.94;54.84
41712;BME280;27399;51.516;13.670;2023-06-26T10:19:44;100228.25;;;30.03;56.12
41712;BME280;27399;51.516;13.670;2023-06-26T10:22:12;100229.72;;;30.17;55.74
41712;BME280;27399;51.516;13.670;2023-06-26T10:24:41;100228.09;;;30.24;55.37
41712;BME280;27399;51.516;13.670;2023-06-26T10:27:21;100224.50;;;30.04;55.21
41712;BME280;27399;51.516;13.670;2023-06-26T10:29:54;100206.50;;;30.59;57.03
41712;BME280;27399;51.516;13.670;2023-06-26T10:32:23;100216.75;;;30.76;57.76
41712;BME280;27399;51.516;13.670;2023-06-26T10:34:51;100205.75;;;30.76;54.53
41712;BME280;27399;51.516;13.670;2023-06-26T10:37:17;100209.84;;;30.33;55.46
41712;BME280;27399;51.516;13.670;2023-06-26T10:42:11;100208.13;;;30.22;54.59
41712;BME280;27399;51.516;13.670;2023-06-26T10:44:44;100200.00;;;30.40;53.28
41712;BME280;27399;51.516;13.670;2023-06-26T10:47:11;100198.56;;;30.56;53.17
41712;BME280;27399;51.516;13.670;2023-06-26T10:49:38;100189.13;;;30.58;53.23
41712;BME280;27399;51.516;13.670;2023-06-26T10:52:07;100185.38;;;30.97;52.69
41712;BME280;27399;51.516;13.670;2023-06-26T10:54:34;100181.69;;;30.79;53.55
41712;BME280;27399;51.516;13.670;2023-06-26T10:57:02;100175.59;;;30.75;53.43
41712;BME280;27399;51.516;13.670;2023-06-26T10:59:30;100180.25;;;30.74;53.15
41712;BME280;27399;51.516;13.670;2023-06-26T11:02:00;100179.91;;;30.87;53.49
41712;BME280;27399;51.516;13.670;2023-06-26T11:07:22;100164.75;;;31.11;53.15
41712;BME280;27399;51.516;13.670;2023-06-26T11:10:01;100175.00;;;31.19;51.41
41712;BME280;27399;51.516;13.670;2023-06-26T11:12:39;100181.03;;;31.32;53.78
41712;BME280;27399;51.516;13.670;2023-06-26T11:15:11;100166.63;;;31.38;51.96
41712;BME280;27399;51.516;13.670;2023-06-26T11:17:39;100159.00;;;31.32;52.89
41712;BME280;27399;51.516;13.670;2023-06-26T11:20:13;100161.88;;;31.31;51.90
41712;BME280;27399;51.516;13.670;2023-06-26T11:22:42;100164.13;;;30.80;52.68
41712;BME280;27399;51.516;13.670;2023-06-26T11:25:09;100163.94;;;30.53;51.61
41712;BME280;27399;51.516;13.670;2023-06-26T11:30:09;100162.66;;;31.23;52.22
41712;BME280;27399;51.516;13.670;2023-06-26T11:32:36;100157.03;;;31.43;52.56
41712;BME280;27399;51.516;13.670;2023-06-26T11:35:03;100152.50;;;31.24;50.88
41712;BME280;27399;51.516;13.670;2023-06-26T11:37:30;100158.41;;;31.29;51.96
41712;BME280;27399;51.516;13.670;2023-06-26T11:39:56;100150.03;;;31.66;52.88
41712;BME280;27399;51.516;13.670;2023-06-26T11:42:21;100158.56;;;31.91;52.34
41712;BME280;27399;51.516;13.670;2023-06-26T11:44:47;100157.16;;;31.69;51.93
41712;BME280;27399;51.516;13.670;2023-06-26T11:47:18;100151.53;;;31.43;50.49
41712;BME280;27399;51.516;13.670;2023-06-26T11:49:49;100150.66;;;31.42;50.39
41712;BME280;27399;51.516;13.670;2023-06-26T11:52:15;100150.94;;;31.85;50.79
41712;BME280;27399;51.516;13.670;2023-06-26T11:54:42;100141.97;;;31.83;50.43
41712;BME280;27399;51.516;13.670;2023-06-26T11:57:09;100141.63;;;31.86;49.50
41712;BME280;27399;51.516;13.670;2023-06-26T11:59:40;100140.16;;;32.18;50.59
41712;BME280;27399;51.516;13.670;2023-06-26T12:02:07;100131.47;;;32.05;50.08
41712;BME280;27399;51.516;13.670;2023-06-26T12:04:36;100130.84;;;32.37;49.77
41712;BME280;27399;51.516;13.670;2023-06-26T12:07:03;100135.59;;;32.09;49.13
41712;BME280;27399;51.516;13.670;2023-06-26T12:09:30;100128.03;;;32.29;49.28
41712;BME280;27399;51.516;13.670;2023-06-26T12:11:59;100131.38;;;32.23;49.99
41712;BME280;27399;51.516;13.670;2023-06-26T12:14:26;100135.28;;;32.30;50.97
41712;BME280;27399;51.516;13.670;2023-06-26T12:16:54;100133.06;;;32.34;49.08
41712;BME280;27399;51.516;13.670;2023-06-26T12:19:25;100130.47;;;31.70;48.92
41712;BME280;27399;51.516;13.670;2023-06-26T12:21:53;100124.63;;;32.17;50.28
41712;BME280;27399;51.516;13.670;2023-06-26T12:24:23;100120.16;;;32.16;50.31
41712;BME280;27399;51.516;13.670;2023-06-26T12:26:53;100112.19;;;32.13;50.17
41712;BME280;27399;51.516;13.670;2023-06-26T12:29:21;100102.56;;;32.17;50.66
41712;BME280;27399;51.516;13.670;2023-06-26T12:31:51;100101.19;;;32.13;50.22
41712;BME280;27399;51.516;13.670;2023-06-26T12:34:18;100095.22;;;31.81;49.36
41712;BME280;27399;51.516;13.670;2023-06-26T12:36:46;100085.25;;;32.25;49.23
41712;BME280;27399;51.516;13.670;2023-06-26T12:39:15;100087.06;;;32.16;50.44
41712;BME280;27399;51.516;13.670;2023-06-26T12:41:49;100089.91;;;32.06;50.25
41712;BME280;27399;51.516;13.670;2023-06-26T12:44:22;100090.59;;;31.82;51.00
41712;BME280;27399;51.516;13.670;2023-06-26T12:46:56;100085.59;;;32.04;50.54
41712;BME280;27399;51.516;13.670;2023-06-26T12:49:38;100074.97;;;32.17;51.13
41712;BME280;27399;51.516;13.670;2023-06-26T12:52:06;100070.88;;;32.21;50.53
41712;BME280;27399;51.516;13.670;2023-06-26T12:54:34;100067.03;;;32.32;50.30
41712;BME280;27399;51.516;13.670;2023-06-26T12:57:00;100077.47;;;32.02;51.09